sensor_id;sensor_type;location;lat;lon;timestamp;pressure;altitude;pressure_sealevel;temperature;humidity
68320;BME280;55168;51.120;17.024;2023-10-13T00:00:00;100150;;;14.4;100.0
68320;BME280;55168;51.120;17.024;2023-10-13T00:01:00;100150;;;14.4;100.0
68320;BME280;55168;51.120;17.024;2023-10-13T00:02:00;100150;;;14.4;100.0
68320;BME280;55168;51.120;17.024;2023-10-13T00:03:00;100160;;;14.4;100.0
68320;BME280;55168;51.120;17.024;2023-10-13T00:04:00;100150;;;14.4;100.0
68320;BME280;55168;51.120;17.024;2023-10-13T00:05:00;100150;;;14.4;100.0
68320;BME280;55168;51.120;17.024;2023-10-13T00:06:00;100160;;;14.4;100.0
68320;BME280;55168;51.120;17.024;2023-10-13T00:07:00;100160;;;14.4;100.0
68320;BME280;55168;51.120;17.024;2023-10-13T00:08:00;100160;;;14.4;100.0
68320;BME280;55168;51.120;17.024;2023-10-13T00:09:00;100160;;;14.5;100.0
68320;BME280;55168;51.120;17.024;2023-10-13T00:10:00;100160;;;14.4;100.0
68320;BME280;55168;51.120;17.024;2023-10-13T00:11:00;100160;;;14.4;100.0
68320;BME280;55168;51.120;17.024;2023-10-13T00:12:00;100160;;;14.4;100.0
68320;BME280;55168;51.120;17.024;2023-10-13T00:13:00;100160;;;14.4;100.0
68320;BME280;55168;51.120;17.024;2023-10-13T00:14:00;100160;;;14.4;100.0
68320;BME280;55168;51.120;17.024;2023-10-13T00:15:00;100160;;;14.4;100.0
68320;BME280;55168;51.120;17.024;2023-10-13T00:16:00;100160;;;14.4;100.0
68320;BME280;55168;51.120;17.024;2023-10-13T00:17:00;100160;;;14.4;100.0
68320;BME280;55168;51.120;17.024;2023-10-13T00:18:00;100160;;;14.4;100.0
68320;BME280;55168;51.120;17.024;2023-10-13T00:19:00;100160;;;14.4;100.0
68320;BME280;55168;51.120;17.024;2023-10-13T00:20:00;100160;;;14.3;100.0
68320;BME280;55168;51.120;17.024;2023-10-13T00:21:00;100160;;;14.3;100.0
68320;BME280;55168;51.120;17.024;2023-10-13T00:22:00;100160;;;14.3;100.0
68320;BME280;55168;51.120;17.024;2023-10-13T00:23:00;100160;;;14.3;100.0
68320;BME280;55168;51.120;17.024;2023-10-13T00:24:00;100160;;;14.3;100.0
68320;BME280;55168;51.120;17.024;2023-10-13T00:25:00;100160;;;14.3;100.0
68320;BME280;55168;51.120;17.024;2023-10-13T00:26:00;100160;;;14.2;100.0
68320;BME280;55168;51.120;17.024;2023-10-13T00:27:00;100150;;;14.2;100.0
68320;BME280;55168;51.120;17.024;2023-10-13T00:28:00;100150;;;14.2;100.0
68320;BME280;55168;51.120;17.024;2023-10-13T00:29:01;100150;;;14.2;100.0
68320;BME280;55168;51.120;17.024;2023-10-13T00:30:01;100150;;;14.2;100.0
68320;BME280;55168;51.120;17.024;2023-10-13T00:31:00;100150;;;14.1;100.0
68320;BME280;55168;51.120;17.024;2023-10-13T00:32:00;100150;;;14.1;100.0
68320;BME280;55168;51.120;17.024;2023-10-13T00:33:00;100160;;;14.1;100.0
68320;BME280;55168;51.120;17.024;2023-10-13T00:34:00;100160;;;14.1;100.0
68320;BME280;55168;51.120;17.024;2023-10-13T00:35:00;100160;;;14.1;100.0
68320;BME280;55168;51.120;17.024;2023-10-13T00:36:00;100150;;;14.1;100.0
68320;BME280;55168;51.120;17.024;2023-10-13T00:37:00;100150;;;14.1;100.0
68320;BME280;55168;51.120;17.024;2023-10-13T00:38:00;100150;;;14.1;100.0
68320;BME280;55168;51.120;17.024;2023-10-13T00:39:00;100160;;;14.1;100.0
68320;BME280;55168;51.120;17.024;2023-10-13T00:40:00;100150;;;14.1;100.0
68320;BME280;55168;51.120;17.024;2023-10-13T00:41:00;100150;;;14.0;100.0
68320;BME280;55168;51.120;17.024;2023-10-13T00:42:00;100160;;;14.0;100.0
68320;BME280;55168;51.120;17.024;2023-10-13T00:43:00;100150;;;14.0;100.0
68320;BME280;55168;51.120;17.024;2023-10-13T00:44:00;100150;;;14.0;100.0
68320;BME280;55168;51.120;17.024;2023-10-13T00:45:00;100150;;;14.0;100.0
68320;BME280;55168;51.120;17.024;2023-10-13T00:46:00;100150;;;13.9;100.0
68320;BME280;55168;51.120;17.024;2023-10-13T00:47:00;100150;;;13.9;100.0
68320;BME280;55168;51.120;17.024;2023-10-13T00:48:00;100160;;;13.9;100.0
68320;BME280;55168;51.120;17.024;2023-10-13T00:49:00;100150;;;13.9;100.0
68320;BME280;55168;51.120;17.024;2023-10-13T00:50:00;100160;;;13.9;100.0
68320;BME280;55168;51.120;17.024;2023-10-13T00:51:02;100150;;;13.9;100.0
68320;BME280;55168;51.120;17.024;2023-10-13T00:52:00;100160;;;13.9;100.0
68320;BME280;55168;51.120;17.024;2023-10-13T00:53:00;100160;;;13.8;100.0
68320;BME280;55168;51.120;17.024;2023-10-13T00:54:01;100160;;;13.8;100.0
68320;BME280;55168;51.120;17.024;2023-10-13T00:55:00;100160;;;13.9;100.0
68320;BME280;55168;51.120;17.024;2023-10-13T00:56:01;100160;;;13.9;100.0
68320;BME280;55168;51.120;17.024;2023-10-13T00:57:00;100160;;;13.8;100.0
68320;BME280;55168;51.120;17.024;2023-10-13T00:58:00;100150;;;13.8;100.0
68320;BME280;55168;51.120;17.024;2023-10-13T00:59:00;100160;;;13.8;100.0
68320;BME280;55168;51.120;17.024;2023-10-13T01:00:00;100160;;;13.8;100.0
68320;BME280;55168;51.120;17.024;2023-10-13T01:01:01;100160;;;13.8;100.0
68320;BME280;55168;51.120;17.024;2023-10-13T01:02:00;100160;;;13.8;100.0
68320;BME280;55168;51.120;17.024;2023-10-13T01:03:00;100160;;;13.8;100.0
68320;BME280;55168;51.120;17.024;2023-10-13T01:04:00;100160;;;13.7;100.0
68320;BME280;55168;51.120;17.024;2023-10-13T01:05:00;100160;;;13.7;100.0
68320;BME280;55168;51.120;17.024;2023-10-13T01:06:00;100160;;;13.7;100.0
68320;BME280;55168;51.120;17.024;2023-10-13T01:07:00;100160;;;13.7;100.0
68320;BME280;55168;51.120;17.024;2023-10-13T01:08:00;100170;;;13.7;100.0
68320;BME280;55168;51.120;17.024;2023-10-13T01:09:01;100160;;;13.7;100.0
68320;BME280;55168;51.120;17.024;2023-10-13T01:10:00;100160;;;13.6;100.0
68320;BME280;55168;51.120;17.024;2023-10-13T01:11:00;100160;;;13.6;100.0
68320;BME280;55168;51.120;17.024;2023-10-13T01:12:00;100170;;;13.6;100.0
68320;BME280;55168;51.120;17.024;2023-10-13T01:13:00;100160;;;13.6;100.0
68320;BME280;55168;51.120;17.024;2023-10-13T01:14:00;100160;;;13.6;100.0
68320;BME280;55168;51.120;17.024;2023-10-13T01:15:00;100160;;;13.6;100.0
68320;BME280;55168;51.120;17.024;2023-10-13T01:16:00;100170;;;13.6;100.0
68320;BME280;55168;51.120;17.024;2023-10-13T01:17:00;100160;;;13.6;100.0
68320;BME280;55168;51.120;17.024;2023-10-13T01:18:08;100160;;;13.6;100.0
68320;BME280;55168;51.120;17.024;2023-10-13T01:19:00;100170;;;13.6;100.0
68320;BME280;55168;51.120;17.024;2023-10-13T01:20:00;100170;;;13.6;100.0
68320;BME280;55168;51.120;17.024;2023-10-13T01:21:00;100170;;;13.6;100.0
68320;BME280;55168;51.120;17.024;2023-10-13T01:22:00;100170;;;13.6;100.0
68320;BME280;55168;51.120;17.024;2023-10-13T01:23:03;100170;;;13.7;100.0
68320;BME280;55168;51.120;17.024;2023-10-13T01:24:00;100170;;;13.7;100.0
68320;BME280;55168;51.120;17.024;2023-10-13T01:25:00;100170;;;13.7;100.0
68320;BME280;55168;51.120;17.024;2023-10-13T01:26:00;100170;;;13.7;100.0
68320;BME280;55168;51.120;17.024;2023-10-13T01:27:00;100170;;;13.6;100.0
68320;BME280;55168;51.120;17.024;2023-10-13T01:28:00;100170;;;13.6;100.0
68320;BME280;55168;51.120;17.024;2023-10-13T01:29:00;100170;;;13.6;100.0
68320;BME280;55168;51.120;17.024;2023-10-13T01:30:00;100170;;;13.6;100.0
68320;BME280;55168;51.120;17.024;2023-10-13T01:31:00;100180;;;13.6;100.0
68320;BME280;55168;51.120;17.024;2023-10-13T01:32:00;100170;;;13.6;100.0
68320;BME280;55168;51.120;17.024;2023-10-13T01:33:00;100170;;;13.5;100.0
68320;BME280;55168;51.120;17.024;2023-10-13T01:34:00;100170;;;13.5;100.0
68320;BME280;55168;51.120;17.024;2023-10-13T01:35:00;100170;;;13.5;100.0
68320;BME280;55168;51.120;17.024;2023-10-13T01:36:00;100170;;;13.5;100.0
68320;BME280;55168;51.120;17.024;2023-10-13T01:37:00;100170;;;13.5;100.0
68320;BME280;55168;51.120;17.024;2023-10-13T01:38:00;100170;;;13.5;100.0
68320;BME280;55168;51.120;17.024;2023-10-13T01:39:00;100170;;;13.6;100.0
68320;BME280;55168;51.120;17.024;2023-10-13T01:40:00;100170;;;13.6;100.0
68320;BME280;55168;51.120;17.024;2023-10-13T01:41:00;100170;;;13.6;100.0
68320;BME280;55168;51.120;17.024;2023-10-13T01:42:00;100160;;;13.6;100.0
68320;BME280;55168;51.120;17.024;2023-10-13T01:43:00;100160;;;13.5;100.0
68320;BME280;55168;51.120;17.024;2023-10-13T01:44:00;100160;;;13.5;100.0
68320;BME280;55168;51.120;17.024;2023-10-13T01:45:00;100160;;;13.5;100.0
68320;BME280;55168;51.120;17.024;2023-10-13T01:46:00;100160;;;13.5;100.0
68320;BME280;55168;51.120;17.024;2023-10-13T01:47:00;100160;;;13.5;100.0
68320;BME280;55168;51.120;17.024;2023-10-13T01:48:00;100160;;;13.5;100.0
68320;BME280;55168;51.120;17.024;2023-10-13T01:49:00;100170;;;13.5;100.0
68320;BME280;55168;51.120;17.024;2023-10-13T01:50:00;100170;;;13.4;100.0
68320;BME280;55168;51.120;17.024;2023-10-13T01:51:00;100170;;;13.5;100.0
68320;BME280;55168;51.120;17.024;2023-10-13T01:52:00;100170;;;13.5;100.0
68320;BME280;55168;51.120;17.024;2023-10-13T01:53:00;100170;;;13.5;100.0
68320;BME280;55168;51.120;17.024;2023-10-13T01:54:00;100170;;;13.5;100.0
68320;BME280;55168;51.120;17.024;2023-10-13T01:55:00;100170;;;13.5;100.0
68320;BME280;55168;51.120;17.024;2023-10-13T01:56:00;100170;;;13.5;100.0
68320;BME280;55168;51.120;17.024;2023-10-13T01:57:00;100170;;;13.5;100.0
68320;BME280;55168;51.120;17.024;2023-10-13T01:58:00;100170;;;13.5;100.0
68320;BME280;55168;51.120;17.024;2023-10-13T01:59:00;100170;;;13.5;100.0
68320;BME280;55168;51.120;17.024;2023-10-13T02:00:00;100170;;;13.6;100.0
68320;BME280;55168;51.120;17.024;2023-10-13T02:01:00;100170;;;13.5;100.0
68320;BME280;55168;51.120;17.024;2023-10-13T02:02:00;100170;;;13.5;100.0
68320;BME280;55168;51.120;17.024;2023-10-13T02:03:00;100170;;;13.6;100.0
68320;BME280;55168;51.120;17.024;2023-10-13T02:04:01;100170;;;13.6;100.0
68320;BME280;55168;51.120;17.024;2023-10-13T02:05:00;100170;;;13.6;100.0
68320;BME280;55168;51.120;17.024;2023-10-13T02:06:00;100170;;;13.6;100.0
68320;BME280;55168;51.120;17.024;2023-10-13T02:07:00;100170;;;13.6;100.0
68320;BME280;55168;51.120;17.024;2023-10-13T02:08:00;100170;;;13.6;100.0
68320;BME280;55168;51.120;17.024;2023-10-13T02:09:01;100170;;;13.6;100.0
68320;BME280;55168;51.120;17.024;2023-10-13T02:10:00;100170;;;13.6;100.0
68320;BME280;55168;51.120;17.024;2023-10-13T02:11:00;100170;;;13.6;100.0
68320;BME280;55168;51.120;17.024;2023-10-13T02:12:00;100170;;;13.6;100.0
68320;BME280;55168;51.120;17.024;2023-10-13T02:13:00;100170;;;13.6;100.0
68320;BME280;55168;51.120;17.024;2023-10-13T02:14:00;100170;;;13.6;100.0
68320;BME280;55168;51.120;17.024;2023-10-13T02:15:00;100170;;;13.6;100.0
68320;BME280;55168;51.120;17.024;2023-10-13T02:16:00;100170;;;13.6;100.0
68320;BME280;55168;51.120;17.024;2023-10-13T02:17:00;100160;;;13.6;100.0
68320;BME280;55168;51.120;17.024;2023-10-13T02:18:00;100160;;;13.6;100.0
68320;BME280;55168;51.120;17.024;2023-10-13T02:19:00;100160;;;13.6;100.0
68320;BME280;55168;51.120;17.024;2023-10-13T02:20:00;100160;;;13.6;100.0
68320;BME280;55168;51.120;17.024;2023-10-13T02:21:02;100160;;;13.6;100.0
68320;BME280;55168;51.120;17.024;2023-10-13T02:22:00;100160;;;13.6;100.0
68320;BME280;55168;51.120;17.024;2023-10-13T02:23:00;100160;;;13.6;100.0
68320;BME280;55168;51.120;17.024;2023-10-13T02:24:00;100160;;;13.6;100.0
68320;BME280;55168;51.120;17.024;2023-10-13T02:25:00;100160;;;13.6;100.0
68320;BME280;55168;51.120;17.024;2023-10-13T02:26:00;100160;;;13.6;100.0
68320;BME280;55168;51.120;17.024;2023-10-13T02:27:00;100160;;;13.6;100.0
68320;BME280;55168;51.120;17.024;2023-10-13T02:28:00;100160;;;13.6;100.0
68320;BME280;55168;51.120;17.024;2023-10-13T02:29:00;100160;;;13.6;100.0
68320;BME280;55168;51.120;17.024;2023-10-13T02:30:00;100160;;;13.6;100.0
68320;BME280;55168;51.120;17.024;2023-10-13T02:31:01;100150;;;13.6;100.0
68320;BME280;55168;51.120;17.024;2023-10-13T02:32:00;100150;;;13.5;100.0
68320;BME280;55168;51.120;17.024;2023-10-13T02:33:00;100150;;;13.5;100.0
68320;BME280;55168;51.120;17.024;2023-10-13T02:34:00;100150;;;13.5;100.0
68320;BME280;55168;51.120;17.024;2023-10-13T02:35:00;100150;;;13.5;100.0
68320;BME280;55168;51.120;17.024;2023-10-13T02:36:00;100150;;;13.5;100.0
68320;BME280;55168;51.120;17.024;2023-10-13T02:37:00;100150;;;13.5;100.0
68320;BME280;55168;51.120;17.024;2023-10-13T02:38:00;100150;;;13.5;100.0
68320;BME280;55168;51.120;17.024;2023-10-13T02:39:00;100150;;;13.6;100.0
68320;BME280;55168;51.120;17.024;2023-10-13T02:40:00;100150;;;13.6;100.0
68320;BME280;55168;51.120;17.024;2023-10-13T02:41:00;100150;;;13.6;100.0
68320;BME280;55168;51.120;17.024;2023-10-13T02:42:00;100160;;;13.6;100.0
68320;BME280;55168;51.120;17.024;2023-10-13T02:43:00;100160;;;13.5;100.0
68320;BME280;55168;51.120;17.024;2023-10-13T02:44:00;100160;;;13.6;100.0
68320;BME280;55168;51.120;17.024;2023-10-13T02:45:00;100160;;;13.5;100.0
68320;BME280;55168;51.120;17.024;2023-10-13T02:46:00;100160;;;13.5;100.0
68320;BME280;55168;51.120;17.024;2023-10-13T02:47:00;100160;;;13.5;100.0
68320;BME280;55168;51.120;17.024;2023-10-13T02:48:00;100160;;;13.5;100.0
68320;BME280;55168;51.120;17.024;2023-10-13T02:49:00;100170;;;13.5;100.0
68320;BME280;55168;51.120;17.024;2023-10-13T02:50:00;100160;;;13.4;100.0
68320;BME280;55168;51.120;17.024;2023-10-13T02:51:00;100170;;;13.4;100.0
68320;BME280;55168;51.120;17.024;2023-10-13T02:52:00;100170;;;13.4;100.0
68320;BME280;55168;51.120;17.024;2023-10-13T02:53:00;100170;;;13.4;100.0
68320;BME280;55168;51.120;17.024;2023-10-13T02:54:00;100170;;;13.4;100.0
68320;BME280;55168;51.120;17.024;2023-10-13T02:55:00;100170;;;13.4;100.0
68320;BME280;55168;51.120;17.024;2023-10-13T02:56:00;100160;;;13.4;100.0
68320;BME280;55168;51.120;17.024;2023-10-13T02:57:00;100160;;;13.4;100.0
68320;BME280;55168;51.120;17.024;2023-10-13T02:58:00;100160;;;13.4;100.0
68320;BME280;55168;51.120;17.024;2023-10-13T02:59:00;100160;;;13.4;100.0
68320;BME280;55168;51.120;17.024;2023-10-13T03:00:00;100160;;;13.4;100.0
68320;BME280;55168;51.120;17.024;2023-10-13T03:01:00;100160;;;13.4;100.0
68320;BME280;55168;51.120;17.024;2023-10-13T03:02:01;100170;;;13.4;100.0
68320;BME280;55168;51.120;17.024;2023-10-13T03:03:00;100170;;;13.4;100.0
68320;BME280;55168;51.120;17.024;2023-10-13T03:04:01;100170;;;13.4;100.0
68320;BME280;55168;51.120;17.024;2023-10-13T03:05:00;100170;;;13.3;100.0
68320;BME280;55168;51.120;17.024;2023-10-13T03:06:00;100170;;;13.3;100.0
68320;BME280;55168;51.120;17.024;2023-10-13T03:07:01;100170;;;13.3;100.0
68320;BME280;55168;51.120;17.024;2023-10-13T03:08:00;100170;;;13.3;100.0
68320;BME280;55168;51.120;17.024;2023-10-13T03:09:02;100170;;;13.3;100.0
68320;BME280;55168;51.120;17.024;2023-10-13T03:10:00;100170;;;13.3;100.0
68320;BME280;55168;51.120;17.024;2023-10-13T03:11:00;100170;;;13.3;100.0
68320;BME280;55168;51.120;17.024;2023-10-13T03:12:00;100170;;;13.3;100.0
68320;BME280;55168;51.120;17.024;2023-10-13T03:13:00;100180;;;13.3;100.0
68320;BME280;55168;51.120;17.024;2023-10-13T03:14:00;100180;;;13.2;100.0
68320;BME280;55168;51.120;17.024;2023-10-13T03:15:00;100180;;;13.2;100.0
68320;BME280;55168;51.120;17.024;2023-10-13T03:16:00;100180;;;13.2;100.0
68320;BME280;55168;51.120;17.024;2023-10-13T03:17:01;100180;;;13.2;100.0
68320;BME280;55168;51.120;17.024;2023-10-13T03:18:00;100180;;;13.2;100.0
68320;BME280;55168;51.120;17.024;2023-10-13T03:19:00;100180;;;13.2;100.0
68320;BME280;55168;51.120;17.024;2023-10-13T03:20:00;100180;;;13.2;100.0
68320;BME280;55168;51.120;17.024;2023-10-13T03:21:00;100180;;;13.2;100.0
68320;BME280;55168;51.120;17.024;2023-10-13T03:22:00;100180;;;13.2;100.0
68320;BME280;55168;51.120;17.024;2023-10-13T03:23:00;100180;;;13.2;100.0
68320;BME280;55168;51.120;17.024;2023-10-13T03:24:00;100180;;;13.2;100.0
68320;BME280;55168;51.120;17.024;2023-10-13T03:25:00;100180;;;13.2;100.0
68320;BME280;55168;51.120;17.024;2023-10-13T03:26:00;100180;;;13.2;100.0
68320;BME280;55168;51.120;17.024;2023-10-13T03:27:00;100180;;;13.2;100.0
68320;BME280;55168;51.120;17.024;2023-10-13T03:28:00;100180;;;13.1;100.0
68320;BME280;55168;51.120;17.024;2023-10-13T03:29:00;100170;;;13.1;100.0
68320;BME280;55168;51.120;17.024;2023-10-13T03:30:00;100180;;;13.1;100.0
68320;BME280;55168;51.120;17.024;2023-10-13T03:31:00;100180;;;13.1;100.0
68320;BME280;55168;51.120;17.024;2023-10-13T03:32:00;100180;;;13.1;100.0
68320;BME280;55168;51.120;17.024;2023-10-13T03:33:02;100170;;;13.1;100.0
68320;BME280;55168;51.120;17.024;2023-10-13T03:34:00;100170;;;13.1;100.0
68320;BME280;55168;51.120;17.024;2023-10-13T03:35:00;100180;;;13.1;100.0
68320;BME280;55168;51.120;17.024;2023-10-13T03:36:00;100170;;;13.1;100.0
68320;BME280;55168;51.120;17.024;2023-10-13T03:37:00;100170;;;13.1;100.0
68320;BME280;55168;51.120;17.024;2023-10-13T03:38:00;100170;;;13.1;100.0
68320;BME280;55168;51.120;17.024;2023-10-13T03:39:00;100170;;;13.1;100.0
68320;BME280;55168;51.120;17.024;2023-10-13T03:40:00;100170;;;13.1;100.0
68320;BME280;55168;51.120;17.024;2023-10-13T03:41:00;100170;;;13.1;100.0
68320;BME280;55168;51.120;17.024;2023-10-13T03:42:00;100170;;;13.1;100.0
68320;BME280;55168;51.120;17.024;2023-10-13T03:43:00;100170;;;13.1;100.0
68320;BME280;55168;51.120;17.024;2023-10-13T03:44:00;100170;;;13.1;100.0
68320;BME280;55168;51.120;17.024;2023-10-13T03:45:00;100170;;;13.1;100.0
68320;BME280;55168;51.120;17.024;2023-10-13T03:46:00;100180;;;13.1;100.0
68320;BME280;55168;51.120;17.024;2023-10-13T03:47:00;100180;;;13.1;100.0
68320;BME280;55168;51.120;17.024;2023-10-13T03:48:00;100180;;;13.1;100.0
68320;BME280;55168;51.120;17.024;2023-10-13T03:49:00;100170;;;13.1;100.0
68320;BME280;55168;51.120;17.024;2023-10-13T03:50:00;100170;;;13.0;100.0
68320;BME280;55168;51.120;17.024;2023-10-13T03:51:01;100180;;;13.0;100.0
68320;BME280;55168;51.120;17.024;2023-10-13T03:52:00;100180;;;13.0;100.0
68320;BME280;55168;51.120;17.024;2023-10-13T03:53:00;100180;;;13.0;100.0
68320;BME280;55168;51.120;17.024;2023-10-13T03:54:00;100170;;;12.9;100.0
68320;BME280;55168;51.120;17.024;2023-10-13T03:55:00;100170;;;12.9;100.0
68320;BME280;55168;51.120;17.024;2023-10-13T03:56:00;100170;;;12.9;100.0
68320;BME280;55168;51.120;17.024;2023-10-13T03:57:00;100170;;;12.9;100.0
68320;BME280;55168;51.120;17.024;2023-10-13T03:58:00;100170;;;12.9;100.0
68320;BME280;55168;51.120;17.024;2023-10-13T03:59:00;100170;;;12.9;100.0
68320;BME280;55168;51.120;17.024;2023-10-13T04:00:00;100170;;;12.9;100.0
68320;BME280;55168;51.120;17.024;2023-10-13T04:01:00;100170;;;12.9;100.0
68320;BME280;55168;51.120;17.024;2023-10-13T04:02:00;100160;;;12.9;100.0
68320;BME280;55168;51.120;17.024;2023-10-13T04:03:00;100170;;;13.0;100.0
68320;BME280;55168;51.120;17.024;2023-10-13T04:04:00;100170;;;13.0;100.0
68320;BME280;55168;51.120;17.024;2023-10-13T04:05:00;100170;;;13.0;100.0
68320;BME280;55168;51.120;17.024;2023-10-13T04:06:00;100180;;;13.1;100.0
68320;BME280;55168;51.120;17.024;2023-10-13T04:07:00;100170;;;13.1;100.0
68320;BME280;55168;51.120;17.024;2023-10-13T04:08:01;100170;;;13.0;100.0
68320;BME280;55168;51.120;17.024;2023-10-13T04:09:00;100170;;;13.0;100.0
68320;BME280;55168;51.120;17.024;2023-10-13T04:10:00;100170;;;13.1;100.0
68320;BME280;55168;51.120;17.024;2023-10-13T04:11:00;100170;;;13.1;100.0
68320;BME280;55168;51.120;17.024;2023-10-13T04:12:01;100170;;;13.1;100.0
68320;BME280;55168;51.120;17.024;2023-10-13T04:13:00;100170;;;13.1;100.0
68320;BME280;55168;51.120;17.024;2023-10-13T04:14:00;100170;;;13.1;100.0
68320;BME280;55168;51.120;17.024;2023-10-13T04:15:00;100170;;;13.1;100.0
68320;BME280;55168;51.120;17.024;2023-10-13T04:16:00;100170;;;13.1;100.0
68320;BME280;55168;51.120;17.024;2023-10-13T04:17:00;100160;;;13.1;100.0
68320;BME280;55168;51.120;17.024;2023-10-13T04:18:00;100160;;;13.1;100.0
68320;BME280;55168;51.120;17.024;2023-10-13T04:19:01;100160;;;13.2;100.0
68320;BME280;55168;51.120;17.024;2023-10-13T04:20:00;100160;;;13.2;100.0
68320;BME280;55168;51.120;17.024;2023-10-13T04:21:00;100160;;;13.2;100.0
68320;BME280;55168;51.120;17.024;2023-10-13T04:22:00;100160;;;13.2;100.0
68320;BME280;55168;51.120;17.024;2023-10-13T04:23:00;100160;;;13.2;100.0
68320;BME280;55168;51.120;17.024;2023-10-13T04:24:00;100160;;;13.2;100.0
68320;BME280;55168;51.120;17.024;2023-10-13T04:25:00;100160;;;13.2;100.0
68320;BME280;55168;51.120;17.024;2023-10-13T04:26:04;100160;;;13.2;100.0
68320;BME280;55168;51.120;17.024;2023-10-13T04:27:00;100150;;;13.2;100.0
68320;BME280;55168;51.120;17.024;2023-10-13T04:28:00;100160;;;13.2;100.0
68320;BME280;55168;51.120;17.024;2023-10-13T04:29:00;100160;;;13.2;100.0
68320;BME280;55168;51.120;17.024;2023-10-13T04:30:00;100160;;;13.2;100.0
68320;BME280;55168;51.120;17.024;2023-10-13T04:31:00;100160;;;13.2;100.0
68320;BME280;55168;51.120;17.024;2023-10-13T04:32:00;100160;;;13.2;100.0
68320;BME280;55168;51.120;17.024;2023-10-13T04:33:00;100160;;;13.3;100.0
68320;BME280;55168;51.120;17.024;2023-10-13T04:34:00;100160;;;13.3;100.0
68320;BME280;55168;51.120;17.024;2023-10-13T04:35:00;100160;;;13.3;100.0
68320;BME280;55168;51.120;17.024;2023-10-13T04:36:15;100160;;;13.3;100.0
68320;BME280;55168;51.120;17.024;2023-10-13T04:37:00;100160;;;13.3;100.0
68320;BME280;55168;51.120;17.024;2023-10-13T04:38:00;100160;;;13.3;100.0
68320;BME280;55168;51.120;17.024;2023-10-13T04:39:00;100160;;;13.4;100.0
68320;BME280;55168;51.120;17.024;2023-10-13T04:40:00;100160;;;13.4;100.0
68320;BME280;55168;51.120;17.024;2023-10-13T04:41:00;100160;;;13.4;100.0
68320;BME280;55168;51.120;17.024;2023-10-13T04:42:00;100150;;;13.4;100.0
68320;BME280;55168;51.120;17.024;2023-10-13T04:43:00;100160;;;13.4;100.0
68320;BME280;55168;51.120;17.024;2023-10-13T04:44:00;100160;;;13.4;100.0
68320;BME280;55168;51.120;17.024;2023-10-13T04:45:00;100160;;;13.4;100.0
68320;BME280;55168;51.120;17.024;2023-10-13T04:46:00;100160;;;13.4;100.0
68320;BME280;55168;51.120;17.024;2023-10-13T04:47:00;100160;;;13.4;100.0
68320;BME280;55168;51.120;17.024;2023-10-13T04:48:01;100160;;;13.4;100.0
68320;BME280;55168;51.120;17.024;2023-10-13T04:49:00;100160;;;13.5;100.0
68320;BME280;55168;51.120;17.024;2023-10-13T04:50:01;100160;;;13.5;100.0
68320;BME280;55168;51.120;17.024;2023-10-13T04:51:00;100160;;;13.5;100.0
68320;BME280;55168;51.120;17.024;2023-10-13T04:52:00;100160;;;13.5;100.0
68320;BME280;55168;51.120;17.024;2023-10-13T04:53:00;100160;;;13.5;100.0
68320;BME280;55168;51.120;17.024;2023-10-13T04:54:00;100160;;;13.5;100.0
68320;BME280;55168;51.120;17.024;2023-10-13T04:55:00;100160;;;13.5;100.0
68320;BME280;55168;51.120;17.024;2023-10-13T04:56:00;100160;;;13.5;100.0
68320;BME280;55168;51.120;17.024;2023-10-13T04:57:00;100150;;;13.5;100.0
68320;BME280;55168;51.120;17.024;2023-10-13T04:58:00;100160;;;13.5;100.0
68320;BME280;55168;51.120;17.024;2023-10-13T04:59:00;100160;;;13.5;100.0
68320;BME280;55168;51.120;17.024;2023-10-13T05:00:01;100160;;;13.5;100.0
68320;BME280;55168;51.120;17.024;2023-10-13T05:01:00;100150;;;13.5;100.0
68320;BME280;55168;51.120;17.024;2023-10-13T05:02:00;100160;;;13.5;100.0
68320;BME280;55168;51.120;17.024;2023-10-13T05:03:00;100160;;;13.6;100.0
68320;BME280;55168;51.120;17.024;2023-10-13T05:04:00;100160;;;13.6;100.0
68320;BME280;55168;51.120;17.024;2023-10-13T05:05:00;100160;;;13.6;100.0
68320;BME280;55168;51.120;17.024;2023-10-13T05:06:00;100160;;;13.6;100.0
68320;BME280;55168;51.120;17.024;2023-10-13T05:07:00;100160;;;13.6;100.0
68320;BME280;55168;51.120;17.024;2023-10-13T05:08:00;100160;;;13.6;100.0
68320;BME280;55168;51.120;17.024;2023-10-13T05:09:00;100150;;;13.6;100.0
68320;BME280;55168;51.120;17.024;2023-10-13T05:10:00;100160;;;13.6;100.0
68320;BME280;55168;51.120;17.024;2023-10-13T05:11:04;100150;;;13.6;100.0
68320;BME280;55168;51.120;17.024;2023-10-13T05:12:00;100150;;;13.6;100.0
68320;BME280;55168;51.120;17.024;2023-10-13T05:13:00;100150;;;13.6;100.0
68320;BME280;55168;51.120;17.024;2023-10-13T05:14:00;100150;;;13.6;100.0
68320;BME280;55168;51.120;17.024;2023-10-13T05:15:00;100150;;;13.6;100.0
68320;BME280;55168;51.120;17.024;2023-10-13T05:16:00;100150;;;13.6;100.0
68320;BME280;55168;51.120;17.024;2023-10-13T05:17:00;100150;;;13.7;100.0
68320;BME280;55168;51.120;17.024;2023-10-13T05:18:00;100150;;;13.7;100.0
68320;BME280;55168;51.120;17.024;2023-10-13T05:19:00;100150;;;13.7;100.0
68320;BME280;55168;51.120;17.024;2023-10-13T05:20:00;100160;;;13.7;100.0
68320;BME280;55168;51.120;17.024;2023-10-13T05:21:00;100160;;;13.7;100.0
68320;BME280;55168;51.120;17.024;2023-10-13T05:22:00;100160;;;13.7;100.0
68320;BME280;55168;51.120;17.024;2023-10-13T05:23:00;100160;;;13.8;100.0
68320;BME280;55168;51.120;17.024;2023-10-13T05:24:00;100160;;;13.7;100.0
68320;BME280;55168;51.120;17.024;2023-10-13T05:25:00;100160;;;13.8;100.0
68320;BME280;55168;51.120;17.024;2023-10-13T05:26:01;100160;;;13.8;100.0